Time;durP1;ratioP1;P1;durP2;ratioP2;P2;SDS_P1;SDS_P2;PMS_P1;PMS_P2;Temp;Humidity;BMP_temperature;BMP_pressure;BME280_temperature;BME280_humidity;BME280_pressure;Samples;Min_cycle;Max_cycle;Signal;HPM_P1;HPM_P2
2023/09/27 00:00:34;;;;;;;18.73;2.60;;;12.80;99.90;;;;;;5026712;28;20060;-59
2023/09/27 00:03:04;;;;;;;20.63;2.67;;;12.80;99.90;;;;;;5027589;28;20056;-59
2023/09/27 00:05:31;;;;;;;;;;;12.80;99.90;;;;;;5027739;28;20053;-59
2023/09/27 00:08:06;;;;;;;12.90;2.53;;;12.80;99.90;;;;;;5014485;28;19921;-59
2023/09/27 00:10:34;;;;;;;16.48;2.53;;;12.80;99.90;;;;;;5026253;28;20046;-59
2023/09/27 00:13:05;;;;;;;15.52;2.13;;;12.80;99.90;;;;;;5021179;28;20057;-59
2023/09/27 00:15:33;;;;;;;11.48;2.80;;;12.80;99.90;;;;;;5027419;28;20050;-59
2023/09/27 00:18:00;;;;;;;23.73;2.90;;;12.80;99.90;;;;;;5026149;28;20058;-59
2023/09/27 00:20:32;;;;;;;13.90;2.58;;;12.80;99.90;;;;;;5027406;28;20049;-59
2023/09/27 00:23:00;;;;;;;12.43;2.42;;;12.70;99.90;;;;;;5024799;28;20042;-59
2023/09/27 00:25:28;;;;;;;19.50;2.60;;;12.80;99.90;;;;;;5027403;28;20385;-59
2023/09/27 00:27:56;;;;;;;15.10;2.33;;;12.70;99.90;;;;;;5018729;28;20083;-59
2023/09/27 00:30:24;;;;;;;12.73;2.42;;;12.70;99.90;;;;;;5024902;28;20501;-59
2023/09/27 00:32:53;;;;;;;14.77;2.75;;;12.80;99.90;;;;;;5026134;28;20685;-59
2023/09/27 00:35:22;;;;;;;22.75;2.92;;;12.80;99.90;;;;;;5025740;28;20048;-59
2023/09/27 00:37:51;;;;;;;15.85;2.30;;;12.80;99.90;;;;;;5026285;28;20063;-59
2023/09/27 00:40:22;;;;;;;16.33;2.40;;;12.80;99.90;;;;;;5025593;28;20046;-59
2023/09/27 00:42:50;;;;;;;15.45;2.83;;;12.80;99.90;;;;;;5022772;28;20052;-59
2023/09/27 00:45:18;;;;;;;16.67;2.42;;;12.70;99.90;;;;;;5025137;28;20049;-59
2023/09/27 00:47:51;;;;;;;19.40;2.88;;;12.70;99.90;;;;;;5047064;28;20039;-59
2023/09/27 00:50:19;;;;;;;16.00;2.55;;;12.60;99.90;;;;;;5030002;28;20057;-58
2023/09/27 00:52:47;;;;;;;13.05;2.75;;;12.60;99.90;;;;;;5031761;28;20053;-59
2023/09/27 00:55:19;;;;;;;16.70;2.63;;;12.50;99.90;;;;;;5049819;28;20064;-58
2023/09/27 00:57:50;;;;;;;17.52;2.70;;;12.50;99.90;;;;;;5008420;28;20056;-59
2023/09/27 01:00:18;;;;;;;18.08;2.88;;;12.50;99.90;;;;;;5025858;28;20050;-58
2023/09/27 01:02:46;;;;;;;16.58;2.70;;;12.50;99.90;;;;;;5028425;28;20041;-59
2023/09/27 01:05:16;;;;;;;19.60;2.53;;;12.40;99.90;;;;;;5026760;28;20053;-59
2023/09/27 01:07:46;;;;;;;16.58;2.65;;;12.40;99.90;;;;;;5026976;28;20061;-59
2023/09/27 01:10:14;;;;;;;17.00;2.63;;;12.40;99.90;;;;;;5039176;28;20046;-59
2023/09/27 01:12:42;;;;;;;20.20;2.55;;;12.40;99.90;;;;;;5027900;28;20045;-59
2023/09/27 01:15:10;;;;;;;23.75;2.88;;;12.40;99.90;;;;;;5029536;28;20053;-59
2023/09/27 01:17:55;;;;;;;20.85;2.88;;;12.30;99.90;;;;;;5029738;28;20052;-59
2023/09/27 01:20:23;;;;;;;14.38;2.22;;;12.30;99.90;;;;;;5039367;28;20045;-58
2023/09/27 01:23:00;;;;;;;13.98;2.55;;;12.30;99.90;;;;;;5029288;28;20045;-59
2023/09/27 01:25:30;;;;;;;21.05;2.88;;;12.30;99.90;;;;;;5029700;28;20501;-59
2023/09/27 01:28:05;;;;;;;;;;;12.30;99.90;;;;;;5027417;28;20049;-59
2023/09/27 01:30:33;;;;;;;22.98;2.75;;;12.30;99.90;;;;;;5026195;28;19929;-59
2023/09/27 01:33:06;;;;;;;17.38;2.83;;;12.30;99.90;;;;;;5030613;28;20054;-59
2023/09/27 01:35:39;;;;;;;19.00;2.78;;;12.30;99.90;;;;;;5031354;28;20050;-59
2023/09/27 01:38:10;;;;;;;18.20;3.00;;;12.30;99.90;;;;;;5033997;28;20396;-59
2023/09/27 01:40:42;;;;;;;21.13;2.88;;;12.30;99.90;;;;;;5032271;28;20051;-59
2023/09/27 01:43:11;;;;;;;14.55;2.58;;;12.30;99.90;;;;;;5030941;28;20056;-59
2023/09/27 01:45:39;;;;;;;13.75;2.42;;;12.30;99.90;;;;;;5029542;28;20045;-59
2023/09/27 01:48:07;;;;;;;17.08;2.33;;;12.30;99.90;;;;;;5021720;28;20076;-59
2023/09/27 01:50:35;;;;;;;27.02;3.33;;;12.30;99.90;;;;;;5018892;28;20038;-59
2023/09/27 01:53:03;;;;;;;17.75;2.75;;;12.30;99.90;;;;;;5032254;28;20049;-59
2023/09/27 01:55:31;;;;;;;21.23;2.70;;;12.20;99.90;;;;;;5032111;28;20054;-59
2023/09/27 01:58:00;;;;;;;16.23;2.20;;;12.30;99.90;;;;;;5030248;28;20053;-59
2023/09/27 02:00:28;;;;;;;14.35;2.67;;;12.30;99.90;;;;;;5030517;28;20052;-59
2023/09/27 02:03:00;;;;;;;16.40;2.45;;;12.20;99.90;;;;;;5031043;28;20049;-59
2023/09/27 02:05:31;;;;;;;18.80;2.85;;;12.20;99.90;;;;;;5031520;28;20041;-59
2023/09/27 02:08:00;;;;;;;14.18;2.22;;;12.20;99.90;;;;;;5035568;28;20056;-59
2023/09/27 02:10:29;;;;;;;20.42;3.88;;;12.10;99.90;;;;;;5040037;28;20038;-59
2023/09/27 02:12:57;;;;;;;12.20;2.17;;;12.10;99.90;;;;;;5030433;28;20057;-59
2023/09/27 02:15:25;;;;;;;16.88;3.17;;;12.10;99.90;;;;;;5031985;28;20049;-59
2023/09/27 02:17:52;;;;;;;21.20;3.15;;;12.10;99.90;;;;;;5030751;28;20054;-59
2023/09/27 02:20:20;;;;;;;20.10;3.05;;;12.10;99.90;;;;;;5030531;28;20040;-59
2023/09/27 02:22:49;;;;;;;14.85;2.78;;;12.10;99.90;;;;;;5030170;28;20045;-59
2023/09/27 02:25:18;;;;;;;19.17;2.67;;;12.10;99.90;;;;;;5031626;28;20046;-59
2023/09/27 02:27:46;;;;;;;12.43;2.60;;;12.10;99.90;;;;;;5030231;28;20519;-59
2023/09/27 02:30:14;;;;;;;20.17;2.75;;;12.00;99.90;;;;;;5031011;28;20493;-59
2023/09/27 02:32:45;;;;;;;19.58;3.72;;;12.00;99.90;;;;;;5031773;28;20066;-59
2023/09/27 02:35:13;;;;;;;24.33;2.75;;;12.00;99.90;;;;;;5030311;28;20057;-59
2023/09/27 02:37:43;;;;;;;19.20;3.33;;;12.00;99.90;;;;;;5031050;28;20048;-59
2023/09/27 02:40:12;;;;;;;16.65;3.08;;;12.00;99.90;;;;;;5042739;28;20056;-59
2023/09/27 02:42:44;;;;;;;21.23;2.97;;;11.90;99.90;;;;;;5031220;28;20054;-59
2023/09/27 02:45:12;;;;;;;17.88;2.80;;;11.90;99.90;;;;;;5030414;28;20041;-59
2023/09/27 02:47:45;;;;;;;18.75;2.83;;;11.90;99.90;;;;;;5044409;28;20382;-59
2023/09/27 02:50:14;;;;;;;15.93;2.50;;;11.90;99.90;;;;;;5050744;28;20041;-59
2023/09/27 02:52:43;;;;;;;20.02;3.05;;;11.90;99.90;;;;;;5038034;28;20041;-59
2023/09/27 02:55:11;;;;;;;13.68;3.03;;;11.80;99.90;;;;;;5029644;28;20046;-59
2023/09/27 02:57:40;;;;;;;17.95;3.05;;;11.80;99.90;;;;;;5030533;28;20489;-59
2023/09/27 03:00:08;;;;;;;13.13;2.50;;;11.80;99.90;;;;;;5028942;28;20045;-59
2023/09/27 03:02:37;;;;;;;20.80;3.15;;;11.70;99.90;;;;;;5032378;28;20038;-59
2023/09/27 03:05:07;;;;;;;16.83;3.08;;;11.70;99.90;;;;;;5029000;28;20048;-59
2023/09/27 03:07:38;;;;;;;21.42;3.28;;;11.70;99.90;;;;;;5031317;28;20065;-59
2023/09/27 03:10:10;;;;;;;23.98;2.92;;;11.70;99.90;;;;;;5042418;28;20041;-59
2023/09/27 03:12:39;;;;;;;13.88;3.03;;;11.70;99.90;;;;;;5029598;28;20505;-59
2023/09/27 03:15:11;;;;;;;17.80;2.63;;;11.60;99.90;;;;;;5029809;28;20045;-59
2023/09/27 03:17:42;;;;;;;18.98;3.00;;;11.50;99.90;;;;;;5030107;28;20041;-59
2023/09/27 03:20:18;;;;;;;14.98;3.15;;;11.50;99.90;;;;;;5029997;28;20045;-59
2023/09/27 03:22:49;;;;;;;21.30;3.00;;;11.50;99.90;;;;;;5029659;28;20049;-59
2023/09/27 03:25:17;;;;;;;19.27;3.17;;;11.50;99.90;;;;;;5029859;28;20041;-59
2023/09/27 03:27:46;;;;;;;17.05;2.75;;;11.50;99.90;;;;;;5030962;28;20042;-59
2023/09/27 03:30:14;;;;;;;24.23;3.70;;;11.40;99.90;;;;;;5029916;28;20056;-59
2023/09/27 03:32:42;;;;;;;13.88;3.22;;;11.40;99.90;;;;;;5029760;28;20046;-59
2023/09/27 03:35:10;;;;;;;16.58;3.05;;;11.40;99.90;;;;;;5030984;28;20040;-59
2023/09/27 03:37:39;;;;;;;22.30;3.35;;;11.40;99.90;;;;;;5030166;28;20214;-59
2023/09/27 03:40:13;;;;;;;14.70;2.78;;;11.30;99.90;;;;;;5041916;28;20052;-59
2023/09/27 03:42:43;;;;;;;19.73;2.72;;;11.40;99.90;;;;;;5029886;28;20057;-59
2023/09/27 03:45:14;;;;;;;22.95;3.30;;;11.30;99.90;;;;;;5030819;28;20064;-59
2023/09/27 03:47:44;;;;;;;20.33;3.08;;;11.30;99.90;;;;;;5029938;28;20053;-59
2023/09/27 03:50:17;;;;;;;10.73;2.83;;;11.30;99.90;;;;;;5029785;28;20046;-59
2023/09/27 03:52:44;;;;;;;17.27;3.15;;;11.30;99.90;;;;;;5029423;28;20045;-59
2023/09/27 03:55:12;;;;;;;18.35;2.65;;;11.30;99.90;;;;;;5029816;28;20045;-59
2023/09/27 03:57:41;;;;;;;15.80;3.25;;;11.30;99.90;;;;;;5029495;28;20061;-59
2023/09/27 04:00:14;;;;;;;14.90;3.00;;;11.30;99.90;;;;;;5028612;28;20056;-59
2023/09/27 04:02:44;;;;;;;13.07;2.83;;;11.30;99.90;;;;;;5032100;28;20050;-59
2023/09/27 04:05:13;;;;;;;18.92;2.97;;;11.30;99.90;;;;;;5032840;28;20052;-59
2023/09/27 04:07:41;;;;;;;15.82;2.92;;;11.40;99.90;;;;;;5034696;28;20051;-59
2023/09/27 04:10:09;;;;;;;19.10;3.28;;;11.40;99.90;;;;;;5046485;28;20042;-59
2023/09/27 04:12:37;;;;;;;15.60;3.08;;;11.40;99.90;;;;;;5033979;28;20052;-58
2023/09/27 04:15:09;;;;;;;24.17;3.78;;;11.40;99.90;;;;;;5034391;28;20405;-59
2023/09/27 04:17:37;;;;;;;17.33;3.15;;;11.40;99.90;;;;;;5034032;28;20061;-59
2023/09/27 04:20:19;;;;;;;16.35;3.58;;;11.40;99.90;;;;;;5034131;28;20057;-59
2023/09/27 04:22:49;;;;;;;16.58;2.90;;;11.40;99.90;;;;;;5033982;28;20049;-59
2023/09/27 04:25:18;;;;;;;20.20;3.50;;;11.40;99.90;;;;;;5033783;28;20397;-59
2023/09/27 04:27:49;;;;;;;18.38;3.17;;;11.40;99.90;;;;;;5032316;28;20049;-59
2023/09/27 04:30:19;;;;;;;12.55;2.65;;;11.50;99.90;;;;;;5033070;28;20049;-58
2023/09/27 04:32:52;;;;;;;14.30;2.92;;;11.50;99.90;;;;;;5032772;28;20041;-58
2023/09/27 04:35:21;;;;;;;17.38;3.55;;;11.50;99.90;;;;;;5033878;28;20501;-58
2023/09/27 04:37:49;;;;;;;13.98;2.67;;;11.50;99.90;;;;;;5035570;28;20049;-59
2023/09/27 04:40:17;;;;;;;16.67;3.13;;;11.50;99.90;;;;;;5038970;28;20050;-58
2023/09/27 04:42:46;;;;;;;13.98;3.03;;;11.50;99.90;;;;;;5033466;28;20041;-59
2023/09/27 04:45:14;;;;;;;18.13;3.45;;;11.50;99.90;;;;;;5033799;28;20041;-58
2023/09/27 04:47:44;;;;;;;15.32;3.30;;;11.50;99.90;;;;;;5025705;28;20056;-59
2023/09/27 04:50:13;;;;;;;16.30;3.20;;;11.50;99.90;;;;;;5022583;28;20064;-59
2023/09/27 04:52:41;;;;;;;22.13;3.67;;;11.50;99.90;;;;;;5034061;28;20033;-59
2023/09/27 04:55:10;;;;;;;19.83;3.40;;;11.50;99.90;;;;;;5047870;28;20080;-59
2023/09/27 04:57:38;;;;;;;12.60;3.28;;;11.50;99.90;;;;;;5030990;28;20059;-59
2023/09/27 05:00:11;;;;;;;20.42;3.30;;;11.50;99.90;;;;;;5035657;28;20057;-58
2023/09/27 05:02:39;;;;;;;15.30;3.05;;;11.50;99.90;;;;;;5018297;28;20049;-58
2023/09/27 05:05:08;;;;;;;12.27;2.80;;;11.50;99.90;;;;;;5025329;28;20056;-59
2023/09/27 05:07:36;;;;;;;15.77;2.83;;;11.50;99.90;;;;;;5045873;28;20485;-59
2023/09/27 05:10:04;;;;;;;16.63;3.13;;;11.50;99.90;;;;;;5036399;28;20050;-59
2023/09/27 05:12:31;;;;;;;18.77;3.28;;;11.50;99.90;;;;;;5029244;28;20052;-59
2023/09/27 05:14:59;;;;;;;19.02;2.88;;;11.50;99.90;;;;;;5028519;28;20045;-59
2023/09/27 05:17:27;;;;;;;14.23;2.90;;;11.50;99.90;;;;;;5028964;28;20048;-59
2023/09/27 05:19:55;;;;;;;16.42;2.95;;;11.50;99.90;;;;;;5020576;28;20053;-59
2023/09/27 05:22:23;;;;;;;14.80;3.05;;;11.50;99.90;;;;;;5028763;28;20350;-60
2023/09/27 05:24:50;;;;;;;12.02;2.95;;;11.50;99.90;;;;;;5029223;28;20052;-59
2023/09/27 05:27:18;;;;;;;18.48;2.88;;;11.50;99.90;;;;;;5029363;28;20394;-59
2023/09/27 05:29:46;;;;;;;18.52;2.80;;;11.50;99.90;;;;;;5029179;28;20057;-59
2023/09/27 05:32:14;;;;;;;18.85;3.35;;;11.50;99.90;;;;;;5029200;28;20042;-59
2023/09/27 05:34:43;;;;;;;20.45;3.47;;;11.50;99.90;;;;;;5027919;28;20049;-59
2023/09/27 05:37:10;;;;;;;19.00;3.25;;;11.50;99.90;;;;;;5028729;28;20050;-59
2023/09/27 05:39:38;;;;;;;18.40;3.78;;;11.50;99.90;;;;;;5038140;28;20474;-60
2023/09/27 05:42:05;;;;;;;24.83;3.60;;;11.50;99.90;;;;;;5026339;28;20056;-59
2023/09/27 05:44:33;;;;;;;26.15;3.40;;;11.50;99.90;;;;;;5038706;28;20508;-58
2023/09/27 05:47:01;;;;;;;20.83;4.13;;;11.40;99.90;;;;;;5047815;28;20056;-59
2023/09/27 05:49:31;;;;;;;25.52;3.92;;;11.50;99.90;;;;;;5014834;28;20053;-59
2023/09/27 05:51:59;;;;;;;16.98;3.78;;;11.40;99.90;;;;;;5021499;28;20048;-59
2023/09/27 05:54:26;;;;;;;15.20;3.00;;;11.50;99.90;;;;;;5027650;28;20053;-59
2023/09/27 05:56:55;;;;;;;19.73;3.90;;;11.40;99.90;;;;;;5029030;28;20045;-59
2023/09/27 05:59:24;;;;;;;12.47;2.83;;;11.40;99.90;;;;;;5028658;28;20049;-59
2023/09/27 06:01:52;;;;;;;24.67;3.88;;;11.40;99.90;;;;;;5026369;28;20052;-59
2023/09/27 06:04:22;;;;;;;12.43;2.83;;;11.40;99.90;;;;;;5011930;28;20061;-59
2023/09/27 06:06:50;;;;;;;15.18;2.95;;;11.50;99.90;;;;;;5020941;28;20045;-59
2023/09/27 06:09:18;;;;;;;17.30;4.32;;;11.40;99.90;;;;;;5041713;28;20044;-58
2023/09/27 06:11:46;;;;;;;17.55;3.40;;;11.50;99.90;;;;;;5027218;28;20076;-58
2023/09/27 06:14:14;;;;;;;18.15;3.50;;;11.40;99.90;;;;;;5026742;28;20045;-59
2023/09/27 06:16:44;;;;;;;19.45;3.72;;;11.40;99.90;;;;;;5028911;28;20045;-58
2023/09/27 06:19:12;;;;;;;17.10;3.95;;;11.40;99.90;;;;;;5017557;28;20050;-58
2023/09/27 06:21:40;;;;;;;19.60;3.58;;;11.40;99.90;;;;;;5007290;28;20130;-59
2023/09/27 06:24:08;;;;;;;20.23;4.25;;;11.40;99.90;;;;;;5027691;28;20048;-58
2023/09/27 06:26:36;;;;;;;16.10;4.60;;;11.40;99.90;;;;;;5023259;28;20049;-58
2023/09/27 06:29:04;;;;;;;21.00;3.67;;;11.40;99.90;;;;;;5024759;28;20053;-58
2023/09/27 06:31:34;;;;;;;21.17;4.53;;;11.50;99.90;;;;;;5026130;28;20070;-58
2023/09/27 06:34:03;;;;;;;21.73;3.95;;;11.50;99.90;;;;;;5022367;28;20049;-59
2023/09/27 06:36:34;;;;;;;22.70;4.13;;;11.50;99.90;;;;;;5024849;28;20049;-59
2023/09/27 06:39:07;;;;;;;14.73;4.60;;;11.50;99.90;;;;;;5038688;28;20077;-58
2023/09/27 06:41:35;;;;;;;16.20;3.75;;;11.60;99.90;;;;;;5028321;28;20048;-58
2023/09/27 06:44:08;;;;;;;19.90;4.00;;;11.60;99.90;;;;;;5028125;28;20519;-58
2023/09/27 06:46:36;;;;;;;17.63;3.85;;;11.60;99.90;;;;;;5046195;28;20060;-57
2023/09/27 06:49:18;;;;;;;22.33;4.88;;;11.70;99.90;;;;;;5018850;28;20410;-57
2023/09/27 06:51:47;;;;;;;22.38;3.47;;;11.70;99.90;;;;;;5034345;28;20461;-59
2023/09/27 06:54:14;;;;;;;21.83;4.07;;;11.80;99.90;;;;;;5027739;28;20085;-58
2023/09/27 06:56:42;;;;;;;13.80;3.80;;;11.80;99.90;;;;;;5028043;28;20054;-58
2023/09/27 06:59:10;;;;;;;18.15;4.03;;;11.90;99.90;;;;;;5027616;28;20045;-58
2023/09/27 07:01:39;;;;;;;15.48;3.50;;;11.90;99.90;;;;;;5028496;28;20891;-58
2023/09/27 07:04:08;;;;;;;16.30;3.90;;;12.00;99.90;;;;;;5019487;28;20513;-58
2023/09/27 07:06:37;;;;;;;20.65;3.97;;;12.00;99.90;;;;;;5006111;28;20560;-59
2023/09/27 07:09:12;;;;;;;19.42;3.80;;;12.10;99.90;;;;;;5036014;28;20056;-59
2023/09/27 07:11:42;;;;;;;25.80;3.90;;;12.10;99.90;;;;;;5024404;28;20049;-59
2023/09/27 07:14:10;;;;;;;15.45;3.35;;;12.20;99.90;;;;;;5023413;28;20049;-59
2023/09/27 07:16:38;;;;;;;21.60;3.17;;;12.20;99.90;;;;;;5027483;28;20050;-58
2023/09/27 07:19:26;;;;;;;17.83;3.88;;;12.30;99.90;;;;;;5028257;28;20206;-58
2023/09/27 07:21:54;;;;;;;16.23;3.63;;;12.40;99.90;;;;;;5008543;28;20053;-59
2023/09/27 07:24:22;;;;;;;20.55;3.50;;;12.50;99.90;;;;;;5035303;28;20045;-59
2023/09/27 07:26:52;;;;;;;18.33;3.70;;;12.50;99.90;;;;;;5028350;28;20060;-59
2023/09/27 07:29:20;;;;;;;17.50;3.75;;;12.60;99.90;;;;;;5027391;28;20045;-59
2023/09/27 07:31:49;;;;;;;17.55;4.22;;;12.60;99.90;;;;;;5027855;28;20049;-59
2023/09/27 07:34:17;;;;;;;17.92;3.78;;;12.70;99.90;;;;;;5020159;28;20046;-59
2023/09/27 07:36:45;;;;;;;20.63;3.30;;;12.70;99.90;;;;;;5012616;28;20041;-59
2023/09/27 07:39:13;;;;;;;18.48;3.78;;;12.70;99.90;;;;;;5044485;28;20041;-59
2023/09/27 07:41:41;;;;;;;23.13;3.72;;;12.70;99.90;;;;;;5031292;28;20049;-59
2023/09/27 07:44:10;;;;;;;23.63;4.38;;;12.80;99.90;;;;;;5028949;28;21217;-59
2023/09/27 07:46:38;;;;;;;25.15;4.03;;;12.80;99.90;;;;;;5031804;28;20723;-59
2023/09/27 07:49:06;;;;;;;14.88;3.35;;;12.90;99.90;;;;;;5029216;28;20486;-59
2023/09/27 07:51:34;;;;;;;24.83;3.83;;;13.00;99.90;;;;;;5031441;28;20478;-59
2023/09/27 07:54:07;;;;;;;17.85;3.22;;;13.00;99.90;;;;;;5031153;28;20049;-60
2023/09/27 07:56:39;;;;;;;21.88;3.65;;;13.10;99.90;;;;;;5031841;28;20046;-59
2023/09/27 07:59:08;;;;;;;23.58;4.30;;;13.10;99.90;;;;;;5045580;28;20041;-59
2023/09/27 08:01:37;;;;;;;25.83;5.45;;;13.20;99.90;;;;;;5047131;28;20052;-59
2023/09/27 08:04:12;;;;;;;20.20;4.40;;;13.20;99.90;;;;;;5018630;28;20045;-59
2023/09/27 08:06:40;;;;;;;20.42;3.97;;;13.20;99.90;;;;;;5011396;28;20050;-59
2023/09/27 08:09:07;;;;;;;21.60;4.40;;;13.30;99.90;;;;;;5039556;28;20053;-59
2023/09/27 08:11:54;;;;;;;18.90;4.03;;;13.40;99.90;;;;;;5011404;28;20053;-59
2023/09/27 08:14:22;;;;;;;31.58;5.10;;;13.40;99.90;;;;;;5021996;28;20052;-59
2023/09/27 08:16:50;;;;;;;18.17;3.92;;;13.40;99.90;;;;;;5031103;28;20045;-59
2023/09/27 08:19:18;;;;;;;23.23;4.18;;;13.50;99.90;;;;;;5026998;28;20482;-59
2023/09/27 08:21:46;;;;;;;21.80;4.30;;;13.60;99.90;;;;;;5026044;28;20052;-59
2023/09/27 08:24:14;;;;;;;20.80;4.22;;;13.70;99.90;;;;;;5030433;28;20049;-59
2023/09/27 08:26:41;;;;;;;20.25;4.82;;;13.70;99.90;;;;;;5030753;28;20041;-59
2023/09/27 08:29:13;;;;;;;21.67;4.45;;;13.80;99.90;;;;;;5030147;28;20057;-59
2023/09/27 08:31:41;;;;;;;19.50;4.75;;;13.90;99.90;;;;;;5031129;28;20053;-59
2023/09/27 08:34:09;;;;;;;20.05;4.30;;;14.00;99.90;;;;;;5029362;28;20049;-59
2023/09/27 08:36:37;;;;;;;17.55;3.95;;;14.10;99.90;;;;;;5030510;28;20485;-59
2023/09/27 08:39:05;;;;;;;26.98;4.20;;;14.10;99.90;;;;;;5042490;28;20048;-60
2023/09/27 08:41:33;;;;;;;20.77;3.90;;;14.20;99.90;;;;;;5030746;28;20041;-59
2023/09/27 08:44:02;;;;;;;16.83;3.13;;;14.20;99.90;;;;;;5031479;28;20042;-59
2023/09/27 08:46:34;;;;;;;19.08;2.72;;;14.30;99.90;;;;;;5044005;28;20064;-59
2023/09/27 08:49:03;;;;;;;18.05;2.78;;;14.30;99.90;;;;;;5034171;28;20524;-59
2023/09/27 08:51:31;;;;;;;12.97;3.13;;;14.30;99.90;;;;;;5026225;28;20770;-59
2023/09/27 08:54:00;;;;;;;18.13;3.38;;;14.40;99.90;;;;;;5029972;28;20041;-59
2023/09/27 08:56:30;;;;;;;25.05;3.58;;;14.40;99.90;;;;;;5030070;28;20508;-59
2023/09/27 08:58:58;;;;;;;18.00;2.88;;;14.40;99.90;;;;;;5029323;28;20052;-59
2023/09/27 09:01:26;;;;;;;16.25;4.50;;;14.50;99.90;;;;;;5030269;28;20052;-60
2023/09/27 09:03:55;;;;;;;17.90;3.50;;;14.60;99.90;;;;;;5012329;28;20413;-59
2023/09/27 09:06:24;;;;;;;15.45;3.40;;;14.70;99.90;;;;;;5012581;28;20050;-59
2023/09/27 09:08:52;;;;;;;16.75;3.17;;;14.80;99.90;;;;;;5033380;28;20056;-59
2023/09/27 09:11:22;;;;;;;22.73;3.35;;;14.90;99.90;;;;;;5031720;28;20046;-59
2023/09/27 09:14:04;;;;;;;17.75;3.17;;;15.00;99.90;;;;;;5029661;28;20042;-59
2023/09/27 09:16:47;;;;;;;13.98;2.75;;;15.20;99.90;;;;;;5027596;28;20532;-59
2023/09/27 09:19:22;;;;;;;15.77;3.92;;;15.30;99.90;;;;;;5029518;28;20046;-59
2023/09/27 09:22:11;;;;;;;13.95;3.33;;;15.40;99.90;;;;;;5009997;28;20042;-59
2023/09/27 09:24:56;;;;;;;12.88;3.88;;;15.60;99.90;;;;;;5024879;28;20061;-59
2023/09/27 09:27:24;;;;;;;9.52;2.67;;;15.80;99.90;;;;;;5029415;28;20057;-59
2023/09/27 09:29:53;;;;;;;17.45;2.20;;;15.90;99.90;;;;;;5027880;28;20046;-59
2023/09/27 09:32:23;;;;;;;10.80;2.23;;;16.10;99.90;;;;;;5028187;28;20048;-59
2023/09/27 09:34:54;;;;;;;14.93;2.95;;;16.10;99.90;;;;;;5026372;28;20726;-59
2023/09/27 09:37:28;;;;;;;12.98;3.17;;;16.20;99.90;;;;;;5010836;28;20033;-59
2023/09/27 09:40:16;;;;;;;13.48;2.63;;;16.20;99.90;;;;;;5042970;28;20504;-59
2023/09/27 09:42:48;;;;;;;11.88;2.60;;;16.20;99.90;;;;;;5029485;28;20050;-59
2023/09/27 09:45:16;;;;;;;15.60;2.30;;;16.10;99.90;;;;;;5011204;28;20064;-59
2023/09/27 09:47:44;;;;;;;14.18;2.67;;;16.00;99.90;;;;;;5028887;28;20058;-62
2023/09/27 09:50:18;;;;;;;10.88;2.55;;;16.00;99.90;;;;;;5024372;28;20527;-59
2023/09/27 09:52:57;;;;;;;17.02;3.30;;;16.00;99.90;;;;;;5027134;28;20056;-59
2023/09/27 09:55:29;;;;;;;9.95;2.88;;;16.00;99.90;;;;;;5018872;28;20064;-60
2023/09/27 09:58:33;;;;;;;13.43;3.45;;;16.00;99.90;;;;;;5028722;28;20041;-60
2023/09/27 10:01:03;;;;;;;14.13;3.38;;;16.00;99.90;;;;;;5030657;28;20497;-60
2023/09/27 10:03:33;;;;;;;13.05;3.53;;;16.00;99.90;;;;;;5018855;28;20052;-60
2023/09/27 10:06:04;;;;;;;15.05;3.10;;;15.90;99.90;;;;;;5007222;28;20050;-59
2023/09/27 10:08:38;;;;;;;15.32;3.50;;;15.90;99.90;;;;;;5048416;28;20048;-60
2023/09/27 10:11:08;;;;;;;14.18;3.47;;;15.80;99.90;;;;;;5018366;28;20065;-60
2023/09/27 10:13:39;;;;;;;15.15;4.78;;;15.80;99.90;;;;;;5031750;28;20042;-60
2023/09/27 10:16:10;;;;;;;17.65;4.25;;;15.80;99.90;;;;;;5026430;28;20057;-60
2023/09/27 10:18:40;;;;;;;12.75;3.83;;;15.80;99.90;;;;;;5028297;28;20534;-60
2023/09/27 10:21:10;;;;;;;16.52;3.95;;;15.70;99.90;;;;;;5023720;28;20056;-60
2023/09/27 10:23:47;;;;;;;15.13;4.47;;;15.70;99.90;;;;;;5012657;28;20045;-60
2023/09/27 10:26:27;;;;;;;13.95;4.03;;;15.70;99.90;;;;;;5008970;28;20041;-60
2023/09/27 10:29:03;;;;;;;14.15;4.85;;;15.70;99.90;;;;;;5021545;28;20052;-60
2023/09/27 10:31:36;;;;;;;15.73;4.70;;;15.70;99.90;;;;;;5028223;28;20046;-60
2023/09/27 10:34:30;;;;;;;11.98;4.45;;;15.60;99.90;;;;;;5038286;28;20045;-60
2023/09/27 10:37:00;;;;;;;15.63;4.45;;;15.60;99.90;;;;;;4999329;28;20054;-60
2023/09/27 10:40:19;;;;;;;17.88;4.30;;;15.60;99.90;;;;;;5035767;28;20041;-60
2023/09/27 10:42:48;;;;;;;17.23;5.15;;;15.50;99.90;;;;;;5015148;28;20061;-60
2023/09/27 10:45:17;;;;;;;14.20;5.03;;;15.60;99.90;;;;;;5030828;28;20037;-60
2023/09/27 10:47:49;;;;;;;15.32;6.13;;;15.60;99.90;;;;;;5024706;28;20044;-60
2023/09/27 10:50:28;;;;;;;14.80;5.35;;;15.60;99.90;;;;;;5026279;28;20314;-60
2023/09/27 10:52:59;;;;;;;19.92;6.43;;;15.60;99.90;;;;;;5025369;28;20061;-60
2023/09/27 10:55:37;;;;;;;19.70;5.50;;;15.60;99.90;;;;;;5010353;28;20045;-61
2023/09/27 10:58:06;;;;;;;17.05;5.60;;;15.60;99.90;;;;;;5026861;28;20060;-60
2023/09/27 11:00:34;;;;;;;14.93;5.25;;;15.60;99.90;;;;;;5026620;28;20050;-60
2023/09/27 11:03:16;;;;;;;17.23;5.93;;;15.70;99.90;;;;;;5026613;28;20061;-60
2023/09/27 11:05:44;;;;;;;17.45;5.10;;;15.70;99.90;;;;;;5011692;28;20052;-60
2023/09/27 11:08:22;;;;;;;18.27;5.78;;;15.70;99.90;;;;;;5020757;28;20049;-60
2023/09/27 11:10:52;;;;;;;20.10;6.28;;;15.80;99.90;;;;;;5022812;28;20053;-60
2023/09/27 11:13:21;;;;;;;18.77;7.35;;;15.80;99.90;;;;;;5031119;28;20057;-60
2023/09/27 11:15:50;;;;;;;21.48;6.72;;;15.80;99.90;;;;;;5029000;28;20060;-61
2023/09/27 11:18:18;;;;;;;24.50;7.27;;;15.70;99.90;;;;;;5030749;28;20485;-59
2023/09/27 11:20:46;;;;;;;21.25;7.07;;;15.70;99.90;;;;;;5026976;28;20298;-60
2023/09/27 11:23:14;;;;;;;20.23;6.95;;;15.70;99.90;;;;;;5014031;28;20041;-60
2023/09/27 11:25:42;;;;;;;29.98;8.32;;;15.70;99.90;;;;;;5029922;28;20054;-60
2023/09/27 11:28:17;;;;;;;24.45;6.57;;;15.70;99.90;;;;;;5029954;28;20053;-59
2023/09/27 11:30:45;;;;;;;23.60;7.35;;;15.70;99.90;;;;;;5028997;28;20049;-59
2023/09/27 11:33:16;;;;;;;20.90;7.40;;;15.70;99.90;;;;;;5022140;28;20037;-60
2023/09/27 11:35:49;;;;;;;24.52;8.18;;;15.70;99.90;;;;;;5025707;28;20041;-59
2023/09/27 11:38:17;;;;;;;24.02;7.53;;;15.70;99.90;;;;;;5021736;28;20405;-59
2023/09/27 11:40:46;;;;;;;28.33;8.10;;;15.70;99.90;;;;;;5025888;28;20049;-60
2023/09/27 11:43:14;;;;;;;19.88;7.05;;;15.80;99.90;;;;;;5026632;28;20049;-60
2023/09/27 11:45:49;;;;;;;21.60;7.05;;;15.70;99.90;;;;;;5025272;28;20056;-60
2023/09/27 11:48:33;;;;;;;22.05;6.60;;;15.80;99.90;;;;;;5028572;28;20056;-60
2023/09/27 11:51:01;;;;;;;17.52;6.43;;;15.80;99.90;;;;;;5041906;28;20049;-60
2023/09/27 11:53:29;;;;;;;22.42;6.80;;;15.80;99.90;;;;;;5022745;28;20060;-60
2023/09/27 11:56:01;;;;;;;24.35;6.57;;;15.80;99.90;;;;;;5011835;28;20045;-60
2023/09/27 11:58:29;;;;;;;20.98;6.47;;;15.80;99.90;;;;;;5025795;28;20052;-60
2023/09/27 12:00:57;;;;;;;18.35;6.22;;;15.80;99.90;;;;;;5030444;28;20048;-59
2023/09/27 12:03:25;;;;;;;18.70;6.50;;;15.90;99.90;;;;;;5025848;28;20061;-59
2023/09/27 12:05:54;;;;;;;21.17;7.20;;;15.90;99.90;;;;;;5024952;28;20049;-59
2023/09/27 12:08:22;;;;;;;24.60;5.80;;;15.90;99.90;;;;;;5034443;28;20515;-59
2023/09/27 12:10:50;;;;;;;23.52;6.38;;;15.90;99.90;;;;;;5028284;28;20050;-59
2023/09/27 12:13:18;;;;;;;21.85;6.40;;;16.00;99.90;;;;;;5027348;28;20056;-60
2023/09/27 12:15:46;;;;;;;18.17;6.40;;;16.00;99.90;;;;;;5029576;28;20050;-59
2023/09/27 12:18:13;;;;;;;22.63;7.43;;;16.00;99.90;;;;;;5027427;28;20381;-60
2023/09/27 12:20:41;;;;;;;21.20;6.60;;;16.10;99.90;;;;;;5030893;28;20056;-60
2023/09/27 12:23:13;;;;;;;19.23;5.68;;;16.10;99.90;;;;;;5032136;28;20045;-60
2023/09/27 12:25:42;;;;;;;17.23;5.63;;;16.20;99.90;;;;;;5030967;28;20057;-60
2023/09/27 12:28:10;;;;;;;18.77;4.97;;;16.20;99.90;;;;;;5023580;28;20432;-60
2023/09/27 12:30:37;;;;;;;24.02;5.90;;;16.30;99.90;;;;;;5030260;28;20049;-60
2023/09/27 12:33:06;;;;;;;26.90;5.75;;;16.30;99.90;;;;;;5030738;28;20060;-59
2023/09/27 12:35:33;;;;;;;19.27;5.00;;;16.30;99.90;;;;;;5032219;28;20041;-59
2023/09/27 12:38:04;;;;;;;17.45;5.43;;;16.40;99.90;;;;;;5032097;28;20043;-59
2023/09/27 12:40:32;;;;;;;25.02;5.75;;;16.40;99.90;;;;;;5030622;28;20057;-60
2023/09/27 12:43:01;;;;;;;20.90;5.55;;;16.50;99.90;;;;;;5028916;28;20053;-59
2023/09/27 12:45:30;;;;;;;16.77;5.50;;;16.60;99.90;;;;;;5032003;28;20053;-61
2023/09/27 12:47:58;;;;;;;10.23;4.57;;;16.60;99.90;;;;;;5027703;28;20052;-61
2023/09/27 12:50:28;;;;;;;19.77;5.07;;;16.60;99.90;;;;;;5028922;28;20057;-60
2023/09/27 12:52:57;;;;;;;14.43;4.53;;;16.70;99.90;;;;;;5025628;28;20050;-60